createdAt,value
2022-08-26T00:02:11.731Z,54.28
2022-08-26T00:04:39.130Z,54.42
2022-08-26T00:07:06.816Z,54.83
2022-08-26T00:09:39.040Z,54.79
2022-08-26T00:12:09.388Z,55.38
2022-08-26T00:14:39.955Z,55.98
2022-08-26T00:17:08.674Z,55.27
2022-08-26T00:19:36.081Z,55.86
2022-08-26T00:22:03.849Z,53.94
2022-08-26T00:24:31.226Z,53.70
2022-08-26T00:26:58.842Z,54.79
2022-08-26T00:29:26.128Z,55.35
2022-08-26T00:31:53.461Z,55.41
2022-08-26T00:34:20.844Z,56.15
2022-08-26T00:36:49.254Z,56.51
2022-08-26T00:39:20.573Z,56.87
2022-08-26T00:41:53.488Z,57.77
2022-08-26T00:44:21.557Z,58.30
2022-08-26T00:47:00.780Z,58.32
2022-08-26T00:49:40.767Z,57.76
2022-08-26T00:52:19.184Z,57.77
2022-08-26T00:55:22.336Z,58.10
2022-08-26T00:57:52.687Z,57.29
2022-08-26T01:00:27.855Z,56.50
2022-08-26T01:02:57.008Z,57.99
2022-08-26T01:05:25.462Z,56.90
2022-08-26T01:07:52.854Z,56.74
2022-08-26T01:10:27.347Z,58.18
2022-08-26T01:13:10.230Z,58.82
2022-08-26T01:15:50.320Z,58.14
2022-08-26T01:18:18.474Z,56.26
2022-08-26T01:21:25.390Z,54.13
2022-08-26T01:23:57.727Z,56.57
2022-08-26T01:26:35.299Z,59.28
2022-08-26T01:29:08.340Z,59.54
2022-08-26T01:31:45.413Z,60.13
2022-08-26T01:34:27.211Z,59.79
2022-08-26T01:37:07.030Z,60.42
2022-08-26T01:39:37.181Z,59.29
2022-08-26T01:42:11.635Z,58.13
2022-08-26T01:45:11.312Z,58.80
2022-08-26T01:47:39.893Z,58.66
2022-08-26T01:50:28.203Z,60.73
2022-08-26T01:53:07.040Z,59.37
2022-08-26T01:55:40.034Z,59.32
2022-08-26T01:58:20.867Z,59.35
2022-08-26T02:00:49.439Z,58.84
2022-08-26T02:03:22.187Z,58.78
2022-08-26T02:06:00.372Z,57.70
2022-08-26T02:08:38.011Z,58.93
2022-08-26T02:11:05.662Z,59.69
2022-08-26T02:13:41.663Z,59.81
2022-08-26T02:16:11.062Z,58.18
2022-08-26T02:18:43.912Z,59.39
2022-08-26T02:21:15.265Z,60.21
2022-08-26T02:23:42.920Z,58.98
2022-08-26T02:26:21.241Z,59.60
2022-08-26T02:29:08.854Z,60.45
2022-08-26T02:31:36.185Z,61.08
2022-08-26T02:34:20.256Z,60.60
2022-08-26T02:36:49.357Z,60.80
2022-08-26T02:39:22.023Z,61.11
2022-08-26T02:41:50.520Z,61.43
2022-08-26T02:44:17.897Z,61.32
2022-08-26T02:46:47.256Z,61.14
2022-08-26T02:49:17.004Z,60.97
2022-08-26T02:51:49.549Z,60.67
2022-08-26T02:54:19.620Z,61.93
2022-08-26T02:56:48.176Z,61.62
2022-08-26T02:59:15.583Z,61.18
2022-08-26T03:01:45.010Z,62.08
2022-08-26T03:04:13.920Z,61.93
2022-08-26T03:06:42.542Z,62.26
2022-08-26T03:09:09.981Z,62.20
2022-08-26T03:11:41.842Z,62.18
2022-08-26T03:14:11.090Z,63.38
2022-08-26T03:16:40.097Z,63.85
2022-08-26T03:19:09.998Z,63.84
2022-08-26T03:21:39.282Z,63.97
2022-08-26T03:24:06.835Z,63.43
2022-08-26T03:26:34.050Z,63.25
2022-08-26T03:29:30.838Z,63.88
2022-08-26T03:32:01.540Z,63.48
2022-08-26T03:34:28.741Z,62.67
2022-08-26T03:36:55.923Z,63.43
2022-08-26T03:39:23.694Z,63.84
2022-08-26T03:41:52.476Z,62.87
2022-08-26T03:44:21.737Z,62.70
2022-08-26T03:46:49.667Z,63.61
2022-08-26T03:49:17.583Z,62.63
2022-08-26T03:51:45.676Z,63.34
2022-08-26T03:54:13.646Z,62.36
2022-08-26T03:56:41.252Z,63.31
2022-08-26T03:59:09.329Z,63.57
2022-08-26T04:01:36.883Z,64.24
2022-08-26T04:04:04.554Z,63.52
2022-08-26T04:06:39.835Z,63.83
2022-08-26T04:09:17.883Z,64.39
2022-08-26T04:11:47.467Z,63.94
2022-08-26T04:14:23.687Z,64.27
2022-08-26T04:16:53.706Z,64.37
2022-08-26T04:19:24.812Z,63.45
2022-08-26T04:21:53.445Z,62.99
2022-08-26T04:24:25.130Z,63.63
2022-08-26T04:26:53.209Z,64.15
2022-08-26T04:29:25.787Z,64.40
2022-08-26T04:31:55.930Z,63.92
2022-08-26T04:34:28.525Z,64.08
2022-08-26T04:36:57.900Z,64.41
2022-08-26T04:39:27.755Z,64.12
2022-08-26T04:41:57.769Z,63.76
2022-08-26T04:44:29.769Z,62.99
2022-08-26T04:46:58.827Z,62.24
2022-08-26T04:49:27.578Z,60.83
2022-08-26T04:51:55.310Z,61.96
2022-08-26T04:54:23.489Z,61.78
2022-08-26T04:56:52.791Z,61.57
2022-08-26T04:59:20.139Z,61.86
2022-08-26T05:01:59.332Z,60.04
2022-08-26T05:04:26.662Z,61.71
2022-08-26T05:06:57.832Z,60.00
2022-08-26T05:09:29.881Z,59.89
2022-08-26T05:11:58.017Z,58.87
2022-08-26T05:14:25.311Z,57.15
2022-08-26T05:16:53.900Z,54.08
2022-08-26T05:19:21.264Z,52.11
2022-08-26T05:21:49.198Z,50.31
2022-08-26T05:24:18.113Z,48.02
2022-08-26T05:26:46.419Z,47.79
2022-08-26T05:29:14.171Z,45.87
2022-08-26T05:31:41.921Z,45.87
2022-08-26T05:34:15.638Z,45.46
2022-08-26T05:36:46.914Z,44.92
2022-08-26T05:39:14.235Z,44.69
2022-08-26T05:41:43.145Z,43.22
2022-08-26T05:44:18.891Z,40.90
2022-08-26T05:46:46.391Z,41.37
2022-08-26T05:49:16.230Z,40.60
2022-08-26T05:51:47.536Z,40.39
2022-08-26T05:54:22.399Z,42.32
2022-08-26T05:56:51.970Z,43.53
2022-08-26T05:59:21.368Z,45.48
2022-08-26T06:01:54.618Z,46.94
2022-08-26T06:04:27.111Z,48.17
2022-08-26T06:06:56.231Z,48.07
2022-08-26T06:09:24.498Z,47.98
2022-08-26T06:11:52.309Z,47.94
2022-08-26T06:14:20.958Z,46.44
2022-08-26T06:16:49.062Z,43.49
2022-08-26T06:19:17.210Z,41.41
2022-08-26T06:21:54.246Z,40.62
2022-08-26T06:24:41.112Z,39.21
2022-08-26T06:27:13.364Z,36.61
2022-08-26T06:29:40.668Z,33.38
2022-08-26T06:32:08.768Z,31.15
2022-08-26T06:34:36.181Z,30.18
2022-08-26T06:37:06.487Z,27.92
2022-08-26T06:39:34.333Z,27.52
2022-08-26T06:42:02.943Z,26.12
2022-08-26T06:44:34.500Z,25.68
2022-08-26T06:47:02.030Z,25.90
2022-08-26T06:49:29.289Z,26.46
2022-08-26T06:52:00.073Z,26.48
2022-08-26T06:54:31.604Z,27.12
2022-08-26T06:57:01.047Z,27.10
2022-08-26T06:59:28.351Z,26.27
2022-08-26T07:01:55.695Z,25.91
2022-08-26T07:04:24.935Z,24.61
2022-08-26T07:06:56.285Z,23.31
2022-08-26T07:09:27.934Z,22.20
2022-08-26T07:11:56.551Z,21.99
2022-08-26T07:14:26.069Z,22.97
2022-08-26T07:16:54.949Z,23.53
2022-08-26T07:19:31.092Z,22.22
2022-08-26T07:22:06.335Z,21.86
2022-08-26T07:24:42.507Z,20.81
2022-08-26T07:27:16.804Z,19.91
2022-08-26T07:29:44.880Z,18.91
2022-08-26T07:32:15.102Z,17.78
2022-08-26T07:34:43.471Z,16.50
2022-08-26T07:37:12.082Z,16.04
2022-08-26T07:39:41.587Z,15.91
2022-08-26T07:42:14.756Z,16.46
2022-08-26T07:44:43.844Z,16.24
2022-08-26T07:47:25.157Z,17.00
2022-08-26T07:49:57.950Z,16.26
2022-08-26T07:52:29.319Z,17.61
2022-08-26T07:55:01.017Z,18.62
2022-08-26T07:57:30.312Z,18.13
2022-08-26T07:59:59.108Z,19.07
2022-08-26T08:02:29.172Z,18.90
2022-08-26T08:04:58.331Z,18.40
2022-08-26T08:07:44.907Z,17.34
2022-08-26T08:10:20.750Z,16.80
2022-08-26T08:12:53.110Z,18.04
2022-08-26T08:15:26.404Z,18.37
2022-08-26T08:17:58.835Z,18.03
2022-08-26T08:20:29.952Z,17.46
2022-08-26T08:22:57.473Z,18.31
2022-08-26T08:25:25.117Z,19.62
2022-08-26T08:27:52.367Z,21.80
2022-08-26T08:30:22.757Z,23.47
2022-08-26T08:32:51.620Z,24.12
2022-08-26T08:35:23.975Z,24.90
2022-08-26T08:37:54.832Z,22.56
2022-08-26T08:40:26.618Z,20.33
2022-08-26T08:43:17.491Z,19.59
2022-08-26T08:45:58.241Z,17.71
2022-08-26T08:48:33.923Z,16.86
2022-08-26T08:51:34.168Z,17.24
2022-08-26T08:54:02.739Z,16.79
2022-08-26T08:57:00.629Z,16.10
2022-08-26T08:59:35.788Z,14.79
2022-08-26T09:02:22.281Z,14.52
2022-08-26T09:05:22.461Z,15.38
2022-08-26T09:08:17.517Z,15.60
2022-08-26T09:10:59.523Z,15.10
2022-08-26T09:13:29.084Z,15.89
2022-08-26T09:17:04.921Z,15.83
2022-08-26T09:19:54.853Z,14.36
2022-08-26T09:22:37.414Z,13.31
2022-08-26T09:25:11.834Z,11.94
2022-08-26T09:27:52.452Z,11.08
2022-08-26T09:30:31.156Z,10.75
2022-08-26T09:33:10.355Z,10.94
2022-08-26T09:35:48.728Z,11.38
2022-08-26T09:38:34.071Z,10.33
2022-08-26T09:41:08.254Z,9.58
2022-08-26T09:43:36.170Z,8.79
2022-08-26T09:46:26.160Z,8.54
2022-08-26T09:48:53.861Z,8.86
2022-08-26T09:51:31.753Z,9.24
2022-08-26T09:54:03.003Z,9.48
2022-08-26T09:56:39.663Z,9.23
2022-08-26T09:59:12.054Z,9.66
2022-08-26T10:01:45.305Z,10.24
2022-08-26T10:04:23.238Z,9.81
2022-08-26T10:07:08.242Z,9.30
2022-08-26T10:09:44.453Z,9.25
2022-08-26T10:12:20.514Z,9.33
2022-08-26T10:14:54.154Z,8.57
2022-08-26T10:17:36.643Z,9.04
2022-08-26T10:20:23.449Z,9.37
2022-08-26T10:23:14.852Z,9.65
2022-08-26T10:26:05.284Z,10.19
2022-08-26T10:29:19.809Z,10.60
2022-08-26T10:32:10.354Z,9.91
2022-08-26T10:34:43.218Z,10.28
2022-08-26T10:37:21.760Z,10.02
2022-08-26T10:40:02.449Z,10.01
2022-08-26T10:42:58.762Z,9.51
2022-08-26T10:45:33.119Z,8.62
2022-08-26T10:48:05.448Z,8.46
2022-08-26T10:50:43.931Z,8.24
2022-08-26T10:53:42.641Z,8.47
2022-08-26T10:56:47.021Z,8.02
2022-08-26T10:59:55.670Z,7.14
2022-08-26T11:02:47.139Z,7.57
2022-08-26T11:05:23.563Z,7.49
2022-08-26T11:07:56.338Z,7.53
2022-08-26T11:10:24.223Z,7.90
2022-08-26T11:13:07.217Z,8.90
2022-08-26T11:15:40.522Z,10.07
2022-08-26T11:18:12.543Z,10.32
2022-08-26T11:20:47.238Z,8.92
2022-08-26T11:23:23.258Z,9.85
2022-08-26T11:26:35.391Z,15.65
2022-08-26T11:29:04.412Z,18.23
2022-08-26T11:31:39.388Z,20.28
2022-08-26T11:34:13.848Z,23.53
2022-08-26T11:37:00.225Z,24.55
2022-08-26T11:39:57.100Z,25.88
2022-08-26T11:43:40.540Z,27.42
2022-08-26T11:46:13.301Z,26.37
2022-08-26T11:48:43.890Z,25.13
2022-08-26T11:52:26.639Z,22.73
2022-08-26T11:55:14.933Z,20.45
2022-08-26T11:57:53.673Z,20.42
2022-08-26T12:01:36.206Z,22.51
2022-08-26T12:05:19.187Z,21.64
2022-08-26T12:09:02.404Z,20.60
2022-08-26T12:11:37.042Z,19.14
2022-08-26T12:15:21.923Z,19.03
2022-08-26T12:19:04.514Z,18.16
2022-08-26T12:21:34.902Z,16.90
2022-08-26T12:24:04.537Z,16.71
2022-08-26T12:26:39.209Z,16.57
2022-08-26T12:29:26.834Z,15.58
2022-08-26T12:32:17.613Z,15.71
2022-08-26T12:34:48.887Z,16.49
2022-08-26T12:37:18.902Z,15.64
2022-08-26T12:40:29.004Z,15.78
2022-08-26T12:43:00.458Z,16.48
2022-08-26T12:45:43.015Z,16.92
2022-08-26T12:48:29.751Z,16.91
2022-08-26T12:50:58.947Z,17.90
2022-08-26T12:53:42.066Z,17.83
2022-08-26T12:56:40.800Z,20.33
2022-08-26T12:59:25.994Z,20.03
2022-08-26T13:01:54.572Z,19.54
2022-08-26T13:04:40.505Z,18.82
2022-08-26T13:07:21.827Z,18.69
2022-08-26T13:09:56.291Z,18.38
2022-08-26T13:12:37.321Z,21.44
2022-08-26T13:15:07.321Z,21.62
2022-08-26T13:17:35.924Z,19.92
2022-08-26T13:20:04.661Z,20.19
2022-08-26T13:22:32.308Z,19.37
2022-08-26T13:24:59.743Z,19.28
2022-08-26T13:27:27.923Z,19.60
2022-08-26T13:29:57.554Z,21.17
2022-08-26T13:32:27.366Z,22.47
2022-08-26T13:34:57.506Z,23.70
2022-08-26T13:37:35.171Z,22.85
2022-08-26T13:40:07.413Z,22.63
2022-08-26T13:42:35.598Z,21.98
2022-08-26T13:45:03.917Z,22.67
2022-08-26T13:47:33.074Z,22.50
2022-08-26T13:50:00.415Z,24.59
2022-08-26T13:52:30.374Z,26.58
2022-08-26T13:55:00.842Z,26.96
2022-08-26T13:57:30.148Z,26.98
2022-08-26T13:59:59.313Z,27.54
2022-08-26T14:02:27.948Z,28.36
2022-08-26T14:04:55.865Z,28.75
2022-08-26T14:07:23.358Z,29.22
2022-08-26T14:09:50.692Z,28.16
2022-08-26T14:12:18.318Z,27.71
2022-08-26T14:14:45.552Z,27.35
2022-08-26T14:17:22.031Z,27.73
2022-08-26T14:19:51.255Z,28.22
2022-08-26T14:22:22.724Z,28.88
2022-08-26T14:24:50.721Z,28.91
2022-08-26T14:27:22.490Z,28.03
2022-08-26T14:29:49.709Z,27.93
2022-08-26T14:32:27.434Z,28.08
2022-08-26T14:34:56.183Z,28.57
2022-08-26T14:37:23.953Z,28.79
2022-08-26T14:39:52.380Z,28.62
2022-08-26T14:42:31.515Z,29.76
2022-08-26T14:45:04.479Z,30.70
2022-08-26T14:47:32.040Z,29.55
2022-08-26T14:49:59.327Z,28.84
2022-08-26T14:52:27.621Z,29.67
2022-08-26T14:54:55.449Z,31.07
2022-08-26T14:57:22.852Z,31.25
2022-08-26T14:59:50.532Z,31.62
2022-08-26T15:02:32.930Z,31.53
2022-08-26T15:05:02.819Z,31.92
2022-08-26T15:07:30.429Z,32.05
2022-08-26T15:09:58.144Z,32.06
2022-08-26T15:12:25.402Z,32.49
2022-08-26T15:14:52.568Z,33.00
2022-08-26T15:17:19.996Z,33.09
2022-08-26T15:19:47.359Z,32.80
2022-08-26T15:22:14.609Z,32.51
2022-08-26T15:24:41.937Z,32.33
2022-08-26T15:27:09.537Z,31.38
2022-08-26T15:29:37.507Z,31.84
2022-08-26T15:32:05.607Z,32.38
2022-08-26T15:34:32.787Z,32.39
2022-08-26T15:36:59.984Z,31.41
2022-08-26T15:39:27.583Z,32.30
2022-08-26T15:41:56.125Z,32.55
2022-08-26T15:44:26.468Z,31.94
2022-08-26T15:46:58.474Z,32.78
2022-08-26T15:49:27.574Z,32.44
2022-08-26T15:51:55.035Z,32.47
2022-08-26T15:54:23.989Z,32.28
2022-08-26T15:56:52.943Z,32.19
2022-08-26T15:59:22.500Z,32.21
2022-08-26T16:01:49.928Z,32.47
2022-08-26T16:04:18.562Z,32.27
2022-08-26T16:06:50.201Z,32.64
2022-08-26T16:09:20.744Z,32.55
2022-08-26T16:11:47.918Z,32.62
2022-08-26T16:14:15.261Z,32.77
2022-08-26T16:16:42.592Z,32.99
2022-08-26T16:19:11.539Z,33.81
2022-08-26T16:21:41.501Z,34.70
2022-08-26T16:24:09.668Z,36.24
2022-08-26T16:26:40.336Z,37.81
2022-08-26T16:29:13.013Z,38.23
2022-08-26T16:31:41.013Z,38.39
2022-08-26T16:34:09.654Z,39.75
2022-08-26T16:36:40.000Z,40.56
2022-08-26T16:39:09.264Z,40.90
2022-08-26T16:41:37.274Z,44.61
2022-08-26T16:44:06.642Z,42.92
2022-08-26T16:46:35.311Z,42.35
2022-08-26T16:49:05.633Z,43.20
2022-08-26T16:51:37.838Z,44.04
2022-08-26T16:54:08.748Z,44.73
2022-08-26T16:56:38.007Z,45.39
2022-08-26T16:59:11.427Z,46.37
2022-08-26T17:01:38.804Z,47.00
2022-08-26T17:04:06.111Z,47.50
2022-08-26T17:06:33.999Z,47.50
2022-08-26T17:09:01.293Z,46.79
2022-08-26T17:11:28.524Z,47.73
2022-08-26T17:13:55.818Z,48.96
2022-08-26T17:16:26.604Z,50.71
2022-08-26T17:19:00.345Z,52.73
2022-08-26T17:21:29.191Z,52.34
2022-08-26T17:23:56.480Z,52.17
2022-08-26T17:26:23.813Z,52.70
2022-08-26T17:28:51.536Z,51.50
2022-08-26T17:31:20.355Z,52.18
2022-08-26T17:33:53.821Z,52.14
2022-08-26T17:36:28.121Z,52.26
2022-08-26T17:38:58.016Z,51.66
2022-08-26T17:41:26.985Z,50.17
2022-08-26T17:43:54.358Z,54.87
2022-08-26T17:46:22.485Z,55.14
2022-08-26T17:48:49.804Z,57.38
2022-08-26T17:51:19.495Z,61.71
2022-08-26T17:53:48.585Z,65.41
2022-08-26T17:56:23.715Z,68.22
2022-08-26T17:58:57.010Z,70.07
2022-08-26T18:01:27.937Z,70.94
2022-08-26T18:04:00.236Z,70.81
2022-08-26T18:06:30.597Z,70.07
2022-08-26T18:08:59.256Z,71.32
2022-08-26T18:11:28.401Z,71.78
2022-08-26T18:13:55.725Z,67.61
2022-08-26T18:18:54.105Z,69.73
2022-08-26T18:21:26.311Z,69.64
2022-08-26T18:23:54.866Z,69.12
2022-08-26T18:26:27.491Z,66.66
2022-08-26T18:28:55.626Z,68.59
2022-08-26T18:31:23.607Z,66.44
2022-08-26T18:33:51.546Z,67.63
2022-08-26T18:36:26.464Z,72.31
2022-08-26T18:38:55.371Z,74.69
2022-08-26T18:41:27.704Z,76.19
2022-08-26T18:43:56.362Z,76.80
2022-08-26T18:46:27.442Z,76.04
2022-08-26T18:48:57.019Z,76.22
2022-08-26T18:51:32.353Z,73.16
2022-08-26T18:54:05.234Z,73.19
2022-08-26T18:56:36.217Z,73.92
2022-08-26T18:59:06.715Z,74.66
2022-08-26T19:01:36.572Z,73.93
2022-08-26T19:04:07.465Z,74.43
2022-08-26T19:06:36.951Z,74.54
2022-08-26T19:09:09.170Z,72.45
2022-08-26T19:11:42.959Z,71.67
2022-08-26T19:14:16.459Z,74.69
2022-08-26T19:16:48.923Z,75.97
2022-08-26T19:19:16.835Z,75.54
2022-08-26T19:21:44.940Z,75.25
2022-08-26T19:24:17.501Z,76.48
2022-08-26T19:26:57.840Z,75.55
2022-08-26T19:29:31.945Z,75.82
2022-08-26T19:32:00.395Z,76.60
2022-08-26T19:34:27.991Z,76.81
2022-08-26T19:36:56.893Z,74.07
2022-08-26T19:39:26.205Z,73.22
2022-08-26T19:41:54.184Z,72.60
2022-08-26T19:44:42.831Z,71.00
2022-08-26T19:47:12.892Z,72.19
2022-08-26T19:49:40.258Z,71.40
2022-08-26T19:52:07.716Z,72.37
2022-08-26T19:54:36.139Z,71.63
2022-08-26T19:57:04.730Z,71.76
2022-08-26T19:59:33.251Z,71.19
2022-08-26T20:02:01.674Z,72.13
2022-08-26T20:04:31.790Z,73.56
2022-08-26T20:07:01.826Z,73.47
